createdAt,value
2018-09-22T00:00:56.829Z,66.08
2018-09-22T00:03:24.100Z,65.67
2018-09-22T00:05:51.436Z,65.72
2018-09-22T00:08:18.655Z,66.06
2018-09-22T00:10:46.014Z,64.86
2018-09-22T00:13:13.270Z,65.52
2018-09-22T00:15:40.500Z,65.49
2018-09-22T00:18:07.732Z,65.49
2018-09-22T00:20:35.021Z,65.01
2018-09-22T00:23:02.200Z,65.22
2018-09-22T00:25:29.517Z,66.01
2018-09-22T00:27:56.736Z,65.29
2018-09-22T00:30:24.008Z,64.72
2018-09-22T00:32:51.233Z,65.14
2018-09-22T00:35:18.495Z,65.66
2018-09-22T00:37:45.727Z,65.28
2018-09-22T00:40:12.987Z,64.76
2018-09-22T00:42:40.195Z,65.33
2018-09-22T00:45:07.598Z,64.36
2018-09-22T00:47:34.861Z,65.28
2018-09-22T00:50:02.197Z,65.23
2018-09-22T00:52:29.463Z,65.27
2018-09-22T00:54:56.778Z,65.25
2018-09-22T00:57:24.132Z,64.62
2018-09-22T00:59:51.414Z,65.42
2018-09-22T01:02:18.783Z,65.17
2018-09-22T01:04:46.166Z,65.50
2018-09-22T01:07:13.515Z,65.55
2018-09-22T01:09:40.855Z,65.48
2018-09-22T01:12:08.172Z,65.26
2018-09-22T01:14:35.498Z,66.04
2018-09-22T01:17:02.820Z,66.22
2018-09-22T01:19:30.085Z,66.07
2018-09-22T01:21:57.394Z,65.23
2018-09-22T01:24:24.676Z,65.92
2018-09-22T01:26:51.954Z,65.71
2018-09-22T01:29:19.212Z,66.39
2018-09-22T01:31:46.562Z,66.10
2018-09-22T01:34:13.896Z,67.13
2018-09-22T01:36:41.800Z,67.28
2018-09-22T01:39:10.226Z,67.37
2018-09-22T01:41:37.713Z,67.30
2018-09-22T01:44:05.334Z,66.20
2018-09-22T01:46:32.671Z,66.42
2018-09-22T01:49:00.033Z,66.09
2018-09-22T01:51:27.268Z,66.36
2018-09-22T01:53:54.559Z,66.73
2018-09-22T01:56:21.904Z,67.09
2018-09-22T01:58:49.221Z,66.37
2018-09-22T02:01:16.563Z,66.31
2018-09-22T02:03:43.832Z,67.01
2018-09-22T02:06:11.107Z,66.35
2018-09-22T02:08:38.505Z,66.77
2018-09-22T02:11:05.892Z,67.24
2018-09-22T02:13:33.206Z,66.49
2018-09-22T02:16:00.515Z,66.32
2018-09-22T02:18:27.835Z,66.78
2018-09-22T02:20:55.120Z,67.42
2018-09-22T02:23:22.476Z,67.42
2018-09-22T02:25:49.791Z,67.74
2018-09-22T02:28:17.094Z,68.08
2018-09-22T02:30:44.351Z,67.75
2018-09-22T02:33:11.667Z,68.69
2018-09-22T02:35:38.988Z,68.15
2018-09-22T02:38:06.289Z,69.27
2018-09-22T02:40:43.705Z,69.58
2018-09-22T02:43:10.988Z,69.52
2018-09-22T02:45:38.341Z,70.10
2018-09-22T02:48:05.644Z,71.22
2018-09-22T02:50:32.944Z,70.63
2018-09-22T02:53:00.243Z,71.44
2018-09-22T02:55:27.562Z,72.25
2018-09-22T02:57:54.807Z,71.99
2018-09-22T03:00:22.105Z,72.95
2018-09-22T03:02:49.513Z,73.20
2018-09-22T03:05:16.785Z,73.70
2018-09-22T03:07:44.044Z,73.18
2018-09-22T03:10:11.706Z,74.08
2018-09-22T03:12:38.601Z,73.98
2018-09-22T03:15:06.280Z,74.54
2018-09-22T03:17:33.571Z,74.58
2018-09-22T03:20:00.825Z,75.46
2018-09-22T03:22:28.107Z,75.07
2018-09-22T03:24:55.556Z,74.41
2018-09-22T03:27:22.881Z,75.36
2018-09-22T03:29:50.166Z,75.09
2018-09-22T03:32:17.436Z,74.74
2018-09-22T03:34:44.727Z,75.52
2018-09-22T03:40:04.698Z,74.64
2018-09-22T03:42:32.019Z,74.98
2018-09-22T03:44:59.369Z,74.64
2018-09-22T03:47:26.639Z,75.45
2018-09-22T03:49:53.918Z,76.09
2018-09-22T03:52:21.212Z,76.11
2018-09-22T03:54:48.461Z,76.19
2018-09-22T03:57:15.828Z,76.56
2018-09-22T03:59:43.100Z,76.14
2018-09-22T04:02:10.358Z,75.89
2018-09-22T04:04:37.623Z,76.52
2018-09-22T04:07:04.833Z,76.09
2018-09-22T04:09:32.123Z,76.89
2018-09-22T04:11:59.363Z,76.25
2018-09-22T04:14:26.765Z,75.90
2018-09-22T04:16:54.030Z,76.73
2018-09-22T04:19:21.339Z,76.30
2018-09-22T04:21:48.591Z,76.31
2018-09-22T04:24:17.306Z,76.38
2018-09-22T04:26:45.056Z,76.24
2018-09-22T04:29:12.381Z,75.78
2018-09-22T04:31:39.702Z,75.13
2018-09-22T04:34:07.016Z,75.71
2018-09-22T04:36:34.267Z,75.97
2018-09-22T04:39:01.621Z,75.14
2018-09-22T04:41:28.922Z,75.49
2018-09-22T04:43:56.409Z,75.62
2018-09-22T04:46:23.632Z,75.62
2018-09-22T04:48:50.851Z,75.80
2018-09-22T04:51:18.134Z,75.51
2018-09-22T04:53:45.412Z,75.26
2018-09-22T04:56:12.645Z,76.16
2018-09-22T04:58:39.852Z,76.10
2018-09-22T05:01:07.064Z,75.71
2018-09-22T05:03:34.267Z,76.29
2018-09-22T05:06:01.602Z,76.69
2018-09-22T05:08:28.921Z,76.34
2018-09-22T05:10:56.191Z,76.70
2018-09-22T05:13:23.634Z,76.99
2018-09-22T05:15:51.492Z,77.46
2018-09-22T05:18:18.779Z,77.51
2018-09-22T05:20:46.032Z,78.28
2018-09-22T05:23:13.262Z,78.54
2018-09-22T05:25:40.529Z,79.11
2018-09-22T05:28:07.853Z,79.01
2018-09-22T05:30:35.246Z,79.96
2018-09-22T05:33:02.551Z,80.18
2018-09-22T05:35:29.870Z,80.97
2018-09-22T05:37:57.098Z,80.59
2018-09-22T05:40:24.409Z,81.51
2018-09-22T05:42:51.604Z,81.63
2018-09-22T05:45:18.865Z,81.22
2018-09-22T05:47:46.265Z,80.98
2018-09-22T05:50:13.558Z,80.53
2018-09-22T05:52:40.817Z,80.21
2018-09-22T05:55:08.157Z,80.75
2018-09-22T05:57:35.374Z,79.93
2018-09-22T06:00:02.779Z,79.37
2018-09-22T06:02:30.008Z,78.89
2018-09-22T06:04:57.365Z,78.73
2018-09-22T06:07:24.637Z,79.11
2018-09-22T06:09:51.887Z,79.16
2018-09-22T06:12:19.144Z,78.11
2018-09-22T06:14:46.402Z,78.20
2018-09-22T06:17:13.676Z,77.94
2018-09-22T06:19:40.922Z,77.23
2018-09-22T06:22:08.206Z,77.06
2018-09-22T06:24:35.533Z,76.74
2018-09-22T06:27:02.740Z,77.38
2018-09-22T06:29:29.992Z,77.08
2018-09-22T06:31:57.248Z,76.53
2018-09-22T06:34:24.498Z,76.03
2018-09-22T06:36:51.738Z,75.55
2018-09-22T06:39:19.016Z,75.04
2018-09-22T06:41:46.214Z,75.42
2018-09-22T06:44:13.497Z,75.28
2018-09-22T06:46:40.747Z,74.87
2018-09-22T06:49:07.984Z,74.65
2018-09-22T06:51:35.221Z,74.45
2018-09-22T06:54:02.507Z,74.00
2018-09-22T06:56:29.782Z,73.36
2018-09-22T06:58:56.994Z,73.18
2018-09-22T07:01:24.262Z,71.12
2018-09-22T07:03:51.532Z,71.32
2018-09-22T07:06:18.899Z,70.15
2018-09-22T07:08:46.217Z,68.87
2018-09-22T07:11:13.517Z,68.98
2018-09-22T07:13:40.836Z,69.11
2018-09-22T07:16:08.255Z,70.24
2018-09-22T07:18:35.570Z,69.75
2018-09-22T07:21:06.716Z,69.26
2018-09-22T07:23:34.015Z,69.91
2018-09-22T07:26:01.339Z,70.04
2018-09-22T07:28:28.660Z,70.07
2018-09-22T07:30:55.964Z,69.08
2018-09-22T07:33:23.406Z,69.08
2018-09-22T07:35:50.681Z,68.81
2018-09-22T07:38:18.096Z,67.64
2018-09-22T07:40:45.409Z,68.27
2018-09-22T07:43:12.751Z,67.78
2018-09-22T07:45:40.085Z,66.61
2018-09-22T07:48:07.316Z,66.40
2018-09-22T07:50:34.661Z,65.87
2018-09-22T07:53:01.913Z,64.41
2018-09-22T07:55:29.162Z,63.42
2018-09-22T07:57:56.492Z,61.39
2018-09-22T08:00:23.809Z,61.20
2018-09-22T08:02:51.018Z,61.60
2018-09-22T08:05:18.325Z,60.60
2018-09-22T08:07:45.553Z,59.71
2018-09-22T08:10:12.825Z,58.61
2018-09-22T08:12:40.110Z,57.08
2018-09-22T08:15:07.302Z,58.02
2018-09-22T08:17:34.605Z,58.97
2018-09-22T08:20:01.993Z,57.72
2018-09-22T08:22:29.274Z,52.58
2018-09-22T08:24:56.498Z,52.32
2018-09-22T08:27:23.771Z,52.48
2018-09-22T08:29:51.026Z,53.31
2018-09-22T08:32:18.301Z,53.75
2018-09-22T08:34:45.742Z,53.39
2018-09-22T08:37:13.021Z,54.45
2018-09-22T08:39:40.303Z,56.27
2018-09-22T08:42:07.795Z,56.70
2018-09-22T08:44:35.090Z,57.09
2018-09-22T08:47:02.416Z,57.14
2018-09-22T08:49:29.790Z,57.87
2018-09-22T08:51:57.550Z,57.75
2018-09-22T08:54:24.879Z,57.18
2018-09-22T08:56:52.177Z,56.53
2018-09-22T08:59:19.487Z,57.06
2018-09-22T09:01:46.685Z,58.16
2018-09-22T09:04:13.942Z,58.45
2018-09-22T09:06:41.344Z,58.68
2018-09-22T09:09:09.523Z,57.13
2018-09-22T09:11:36.925Z,55.72
2018-09-22T09:14:04.253Z,55.04
2018-09-22T09:16:31.519Z,54.64
2018-09-22T09:18:58.857Z,54.07
2018-09-22T09:21:26.158Z,55.72
2018-09-22T09:23:53.422Z,55.50
2018-09-22T09:26:21.449Z,56.94
2018-09-22T09:28:48.823Z,56.17
2018-09-22T09:31:17.342Z,54.67
2018-09-22T09:33:44.588Z,55.12
2018-09-22T09:36:11.961Z,54.60
2018-09-22T09:38:39.241Z,54.16
2018-09-22T09:41:06.830Z,54.24
2018-09-22T09:43:34.139Z,54.05
2018-09-22T09:46:01.370Z,54.22
2018-09-22T09:48:28.731Z,53.96
2018-09-22T09:50:56.168Z,54.50
2018-09-22T09:53:23.514Z,54.95
2018-09-22T09:55:50.731Z,54.89
2018-09-22T09:58:18.016Z,55.73
2018-09-22T10:00:46.168Z,54.94
2018-09-22T10:03:14.879Z,55.67
2018-09-22T10:05:42.442Z,54.47
2018-09-22T10:08:09.703Z,52.43
2018-09-22T10:10:36.941Z,50.47
2018-09-22T10:13:04.245Z,48.78
2018-09-22T10:15:31.510Z,45.54
2018-09-22T10:17:58.773Z,44.47
2018-09-22T10:20:26.072Z,44.92
2018-09-22T10:22:53.339Z,43.70
2018-09-22T10:25:20.627Z,43.94
2018-09-22T10:27:47.919Z,43.53
2018-09-22T10:30:15.224Z,44.82
2018-09-22T10:32:42.872Z,44.35
2018-09-22T10:35:10.195Z,44.68
2018-09-22T10:37:37.467Z,43.75
2018-09-22T10:40:05.224Z,43.70
2018-09-22T10:42:32.526Z,43.18
2018-09-22T10:44:59.783Z,45.75
2018-09-22T10:47:27.179Z,47.80
2018-09-22T10:49:54.472Z,45.48
2018-09-22T10:52:21.744Z,44.15
2018-09-22T10:54:49.257Z,45.54
2018-09-22T10:57:48.218Z,46.14
2018-09-22T11:00:15.462Z,46.42
2018-09-22T11:02:42.815Z,47.02
2018-09-22T11:05:10.329Z,47.66
2018-09-22T11:07:37.637Z,47.91
2018-09-22T11:10:06.138Z,48.87
2018-09-22T11:12:33.401Z,47.68
2018-09-22T11:15:00.704Z,44.97
2018-09-22T11:17:27.949Z,43.22
2018-09-22T11:19:55.317Z,40.42
2018-09-22T11:22:24.681Z,41.02
2018-09-22T11:24:51.960Z,39.11
2018-09-22T11:27:19.223Z,39.82
2018-09-22T11:29:46.663Z,40.99
2018-09-22T11:32:13.909Z,41.79
2018-09-22T11:34:41.170Z,41.50
2018-09-22T11:37:08.456Z,40.33
2018-09-22T11:39:36.029Z,41.65
2018-09-22T11:42:03.495Z,40.76
2018-09-22T11:44:30.816Z,38.47
2018-09-22T11:46:58.059Z,39.28
2018-09-22T11:49:25.557Z,38.74
2018-09-22T11:51:52.799Z,40.14
2018-09-22T11:54:20.116Z,40.45
2018-09-22T11:56:47.432Z,41.37
2018-09-22T11:59:14.840Z,40.94
2018-09-22T12:01:42.266Z,40.76
2018-09-22T12:04:09.553Z,40.24
2018-09-22T12:06:36.957Z,40.24
2018-09-22T12:09:06.925Z,40.17
2018-09-22T12:11:34.280Z,40.08
2018-09-22T12:14:01.596Z,40.64
2018-09-22T12:16:28.991Z,40.33
2018-09-22T12:18:56.296Z,40.13
2018-09-22T12:21:23.735Z,41.51
2018-09-22T12:23:50.957Z,43.06
2018-09-22T12:26:18.320Z,43.61
2018-09-22T12:28:45.575Z,42.68
2018-09-22T12:31:12.829Z,42.46
2018-09-22T12:33:40.138Z,41.56
2018-09-22T12:36:07.748Z,39.54
2018-09-22T12:38:34.947Z,38.53
2018-09-22T12:41:02.265Z,39.26
2018-09-22T12:43:29.471Z,38.96
2018-09-22T12:45:56.709Z,39.85
2018-09-22T12:48:24.154Z,40.82
2018-09-22T12:50:51.459Z,41.58
2018-09-22T12:53:18.699Z,40.91
2018-09-22T12:55:46.013Z,40.79
2018-09-22T12:58:13.259Z,39.82
2018-09-22T13:00:40.653Z,39.78
2018-09-22T13:03:09.517Z,39.20
2018-09-22T13:05:37.616Z,39.45
2018-09-22T13:08:05.249Z,39.20
2018-09-22T13:10:32.454Z,38.92
2018-09-22T13:12:59.684Z,37.66
2018-09-22T13:15:26.958Z,36.81
2018-09-22T13:17:54.247Z,37.14
2018-09-22T13:20:22.858Z,35.16
2018-09-22T13:22:50.576Z,35.05
2018-09-22T13:25:18.436Z,35.80
2018-09-22T13:27:45.823Z,34.43
2018-09-22T13:30:13.062Z,35.49
2018-09-22T13:32:40.314Z,34.04
2018-09-22T13:35:07.596Z,34.99
2018-09-22T13:37:34.878Z,35.30
2018-09-22T13:40:02.205Z,35.71
2018-09-22T13:42:29.475Z,34.91
2018-09-22T13:44:56.759Z,34.05
2018-09-22T13:47:24.071Z,33.63
2018-09-22T13:49:51.356Z,32.91
2018-09-22T13:52:18.608Z,34.56
2018-09-22T13:54:45.875Z,33.83
2018-09-22T13:57:13.064Z,34.95
2018-09-22T13:59:40.513Z,34.35
2018-09-22T14:02:07.758Z,34.36
2018-09-22T14:04:35.179Z,34.72
2018-09-22T14:07:02.455Z,33.87
2018-09-22T14:09:29.848Z,33.89
2018-09-22T14:11:57.237Z,34.73
2018-09-22T14:14:24.575Z,36.23
2018-09-22T14:16:51.831Z,37.61
2018-09-22T14:19:19.107Z,37.38
2018-09-22T14:21:46.372Z,38.86
2018-09-22T14:24:13.718Z,38.46
2018-09-22T14:26:41.004Z,38.19
2018-09-22T14:29:08.319Z,37.84
2018-09-22T14:31:35.663Z,36.24
2018-09-22T14:34:02.885Z,37.68
2018-09-22T14:36:30.208Z,38.51
2018-09-22T14:38:57.425Z,38.41
2018-09-22T14:41:24.704Z,38.66
2018-09-22T14:43:52.021Z,38.06
2018-09-22T14:46:19.292Z,38.10
2018-09-22T14:48:46.941Z,39.51
2018-09-22T14:51:14.219Z,39.50
2018-09-22T14:53:41.509Z,40.04
2018-09-22T14:56:08.774Z,40.25
2018-09-22T14:58:36.096Z,39.78
2018-09-22T15:01:03.356Z,40.31
2018-09-22T15:03:30.645Z,41.00
2018-09-22T15:05:57.945Z,41.55
2018-09-22T15:08:25.244Z,42.04
2018-09-22T15:10:52.557Z,41.45
2018-09-22T15:13:19.775Z,41.98
2018-09-22T15:15:47.082Z,41.39
2018-09-22T15:18:14.439Z,41.62
2018-09-22T15:20:41.826Z,42.20
2018-09-22T15:23:09.109Z,41.93
2018-09-22T15:25:36.423Z,42.33
2018-09-22T15:28:03.779Z,42.02
2018-09-22T15:30:31.188Z,42.75
2018-09-22T15:32:58.404Z,43.38
2018-09-22T15:35:25.682Z,42.83
2018-09-22T15:37:52.954Z,43.34
2018-09-22T15:40:20.207Z,43.11
2018-09-22T15:42:47.488Z,43.62
2018-09-22T15:45:14.791Z,43.94
2018-09-22T15:47:42.073Z,44.49
2018-09-22T15:50:09.314Z,44.06
2018-09-22T15:52:36.616Z,44.29
2018-09-22T15:55:03.898Z,45.09
2018-09-22T15:57:31.152Z,45.41
2018-09-22T15:59:58.403Z,45.38
2018-09-22T16:02:25.694Z,45.41
2018-09-22T16:04:52.922Z,46.01
2018-09-22T16:07:20.213Z,45.98
2018-09-22T16:09:47.925Z,45.98
2018-09-22T16:12:17.310Z,45.16
2018-09-22T16:14:44.819Z,45.09
2018-09-22T16:17:12.146Z,44.99
2018-09-22T16:19:39.376Z,45.51
2018-09-22T16:22:06.669Z,45.27
2018-09-22T16:24:33.925Z,45.47
2018-09-22T16:27:01.244Z,45.50
2018-09-22T16:29:28.528Z,46.04
2018-09-22T16:31:55.870Z,46.04
2018-09-22T16:34:23.155Z,46.62
2018-09-22T16:36:50.391Z,46.22
2018-09-22T16:39:17.689Z,46.35
2018-09-22T16:41:45.789Z,46.50
2018-09-22T16:44:13.143Z,46.50
2018-09-22T16:46:40.496Z,46.55
2018-09-22T16:49:07.930Z,46.93
2018-09-22T16:51:35.157Z,47.07
2018-09-22T16:54:02.422Z,46.23
2018-09-22T16:56:29.647Z,46.72
2018-09-22T16:58:56.919Z,47.15
2018-09-22T17:01:24.153Z,47.73
2018-09-22T17:03:51.564Z,47.03
2018-09-22T17:06:18.947Z,48.00
2018-09-22T17:08:46.336Z,47.14
2018-09-22T17:11:13.720Z,48.59
2018-09-22T17:13:40.988Z,48.14
2018-09-22T17:16:08.425Z,47.75
2018-09-22T17:18:35.808Z,47.85
2018-09-22T17:21:03.129Z,46.91
2018-09-22T17:23:30.479Z,47.59
2018-09-22T17:25:57.879Z,48.03
2018-09-22T17:28:25.094Z,48.49
2018-09-22T17:30:52.403Z,48.69
2018-09-22T17:33:19.683Z,48.56
2018-09-22T17:35:47.033Z,48.19
2018-09-22T17:38:14.299Z,48.15
2018-09-22T17:40:41.583Z,48.38
2018-09-22T17:43:08.834Z,49.34
2018-09-22T17:45:36.223Z,49.05
2018-09-22T17:48:03.512Z,49.26
2018-09-22T17:50:30.721Z,49.54
2018-09-22T17:52:58.017Z,49.96
2018-09-22T17:55:25.265Z,49.52
2018-09-22T17:57:52.532Z,50.42
2018-09-22T18:00:19.916Z,50.54
2018-09-22T18:02:47.149Z,50.00
2018-09-22T18:05:14.427Z,50.40
2018-09-22T18:07:41.731Z,50.45
2018-09-22T18:10:09.043Z,50.88
2018-09-22T18:12:36.282Z,51.00
2018-09-22T18:15:03.667Z,51.76
2018-09-22T18:17:30.948Z,53.55
2018-09-22T18:19:58.244Z,52.82
2018-09-22T18:22:25.529Z,52.62
2018-09-22T18:24:52.825Z,52.86
2018-09-22T18:27:20.171Z,52.49
2018-09-22T18:29:47.533Z,53.75
2018-09-22T18:32:14.906Z,54.41
2018-09-22T18:34:42.193Z,55.09
2018-09-22T18:37:09.540Z,55.27
2018-09-22T18:39:36.797Z,55.06
2018-09-22T18:42:04.019Z,55.55
2018-09-22T18:44:31.270Z,55.34
2018-09-22T18:46:58.538Z,55.58
2018-09-22T18:49:25.800Z,57.42
2018-09-22T18:51:53.115Z,58.15
2018-09-22T18:54:20.414Z,59.52
2018-09-22T18:56:47.673Z,59.69
2018-09-22T18:59:14.961Z,61.79
2018-09-22T19:01:42.730Z,59.93
2018-09-22T19:04:09.959Z,61.96
2018-09-22T19:06:37.239Z,63.05
2018-09-22T19:09:06.553Z,62.49
2018-09-22T19:11:33.888Z,61.34
2018-09-22T19:14:04.431Z,61.08
2018-09-22T19:16:37.093Z,64.71
2018-09-22T19:19:10.055Z,62.76
2018-09-22T19:21:44.204Z,64.22
2018-09-22T19:24:15.056Z,65.09
2018-09-22T19:26:50.764Z,65.33
2018-09-22T19:29:25.853Z,67.16
2018-09-22T19:32:02.421Z,66.95
2018-09-22T19:34:40.591Z,67.29
2018-09-22T19:37:26.200Z,66.75
2018-09-22T19:40:59.263Z,66.09
2018-09-22T19:44:30.451Z,66.88
2018-09-22T19:48:01.703Z,67.24
2018-09-22T19:50:34.077Z,65.10
2018-09-22T19:53:01.398Z,64.75
2018-09-22T19:55:28.694Z,63.13
2018-09-22T19:57:55.936Z,64.11
2018-09-22T20:00:23.256Z,63.75
2018-09-22T20:02:50.529Z,64.89
2018-09-22T20:05:17.791Z,65.14
2018-09-22T20:07:45.167Z,63.74
2018-09-22T20:10:12.439Z,63.00
2018-09-22T20:12:39.697Z,62.92
2018-09-22T20:15:06.954Z,63.48
2018-09-22T20:17:34.282Z,62.52
2018-09-22T20:20:01.599Z,62.59
2018-09-22T20:22:28.870Z,62.21
2018-09-22T20:24:56.119Z,63.14
2018-09-22T20:27:23.407Z,64.25
2018-09-22T20:29:50.666Z,64.97
2018-09-22T20:32:17.983Z,66.43
2018-09-22T20:34:45.190Z,66.77
2018-09-22T20:37:12.551Z,67.78
2018-09-22T20:39:39.834Z,68.11
2018-09-22T20:42:07.641Z,65.79
2018-09-22T20:44:34.894Z,67.06
2018-09-22T20:47:02.314Z,68.42
2018-09-22T20:49:29.628Z,69.91
2018-09-22T20:51:57.064Z,68.81
2018-09-22T20:54:24.319Z,71.41
2018-09-22T20:56:51.681Z,72.29
2018-09-22T20:59:19.011Z,73.55
2018-09-22T21:01:46.282Z,73.55
2018-09-22T21:04:13.567Z,71.23
2018-09-22T21:06:41.208Z,67.32
2018-09-22T21:09:09.392Z,69.16
2018-09-22T21:11:36.837Z,66.87
2018-09-22T21:14:04.243Z,65.79
2018-09-22T21:16:31.453Z,68.41
2018-09-22T21:18:58.870Z,65.45
2018-09-22T21:21:26.233Z,64.95
2018-09-22T21:23:53.482Z,67.52
2018-09-22T21:26:20.797Z,68.04
2018-09-22T21:30:12.649Z,67.28
2018-09-22T21:32:39.907Z,68.68
2018-09-22T21:35:07.211Z,68.92
2018-09-22T21:37:34.436Z,68.97
2018-09-22T21:40:01.780Z,69.19
2018-09-22T21:42:29.107Z,68.94
2018-09-22T21:44:56.426Z,69.37
2018-09-22T21:47:23.695Z,70.02
2018-09-22T21:49:51.098Z,69.72
2018-09-22T21:52:18.373Z,70.38
2018-09-22T21:54:45.686Z,71.70
2018-09-22T21:57:12.822Z,73.01
2018-09-22T21:59:40.165Z,73.63
2018-09-22T22:02:07.463Z,73.84
2018-09-22T22:04:34.717Z,74.07
2018-09-22T22:07:02.022Z,72.67
2018-09-22T22:09:29.326Z,72.05
2018-09-22T22:11:56.687Z,70.21
2018-09-22T22:14:23.975Z,71.12
2018-09-22T22:16:51.229Z,70.21
2018-09-22T22:19:18.570Z,70.63
2018-09-22T22:21:45.879Z,71.40
2018-09-22T22:24:13.114Z,72.81
2018-09-22T22:26:40.386Z,72.16
2018-09-22T22:29:07.699Z,72.54
2018-09-22T22:31:34.969Z,71.42
2018-09-22T22:34:02.232Z,72.48
2018-09-22T22:36:29.542Z,72.65
2018-09-22T22:38:56.810Z,72.21
2018-09-22T22:41:24.226Z,72.08
2018-09-22T22:43:51.540Z,70.93
2018-09-22T22:46:18.828Z,70.06
2018-09-22T22:48:46.064Z,68.85
2018-09-22T22:51:13.325Z,68.56
2018-09-22T22:53:40.579Z,68.73
2018-09-22T22:56:07.819Z,69.55
2018-09-22T22:58:35.107Z,68.68
2018-09-22T23:01:02.450Z,69.00
2018-09-22T23:03:29.751Z,68.64
2018-09-22T23:05:56.970Z,68.75
2018-09-22T23:08:24.252Z,68.83
2018-09-22T23:10:51.543Z,68.52
2018-09-22T23:13:18.826Z,69.16
2018-09-22T23:15:46.066Z,69.32
2018-09-22T23:18:13.411Z,69.90
2018-09-22T23:20:40.671Z,69.75
2018-09-22T23:23:07.886Z,70.28
2018-09-22T23:25:35.124Z,69.32
2018-09-22T23:28:02.607Z,70.01
2018-09-22T23:30:29.884Z,70.90
2018-09-22T23:32:57.199Z,72.83
2018-09-22T23:35:24.455Z,73.10
2018-09-22T23:37:51.716Z,74.56
2018-09-22T23:40:19.105Z,75.55
2018-09-22T23:42:46.376Z,77.26
2018-09-22T23:45:13.672Z,78.04
2018-09-22T23:47:40.932Z,79.45
2018-09-22T23:50:08.262Z,79.33
2018-09-22T23:52:35.485Z,78.58
2018-09-22T23:55:02.830Z,79.72
2018-09-22T23:57:30.125Z,79.91
2018-09-22T23:59:57.417Z,80.29
